Time;durP1;ratioP1;P1;durP2;ratioP2;P2;SDS_P1;SDS_P2;PMS_P1;PMS_P2;Temp;Humidity;BMP_temperature;BMP_pressure;BME280_temperature;BME280_humidity;BME280_pressure;Samples;Min_cycle;Max_cycle;Signal;HPM_P1;HPM_P2
2021/06/07 00:01:57;;;;;;;34.88;24.02;;;;;;;;;;5215207;27;20049;-94
2021/06/07 00:04:34;;;;;;;33.47;23.50;;;;;;;;;;5219801;27;20068;-96
2021/06/07 00:11:03;;;;;;;36.05;23.77;;;;;;;;;;5236349;27;20072;-96
2021/06/07 00:13:36;;;;;;;30.50;23.65;;;;;;;;;;5218959;27;20015;-95
2021/06/07 00:16:22;;;;;;;29.67;24.20;;;;;;;;;;5220971;27;20023;-95
2021/06/07 00:19:14;;;;;;;35.67;24.65;;;;;;;;;;5201423;27;20069;-94
2021/06/07 00:21:57;;;;;;;29.83;23.20;;;;;;;;;;5219008;27;20475;-96
2021/06/07 00:24:43;;;;;;;35.83;22.83;;;;;;;;;;5221362;27;20602;-96
2021/06/07 00:27:24;;;;;;;31.33;22.95;;;;;;;;;;5218810;27;20034;-96
2021/06/07 00:33:41;;;;;;;31.17;22.90;;;;;;;;;;5170610;27;20026;-96
2021/06/07 00:39:52;;;;;;;29.20;22.73;;;;;;;;;;5170704;27;20023;-94
2021/06/07 00:42:53;;;;;;;37.28;23.15;;;;;;;;;;5159135;27;20033;-95
2021/06/07 00:45:51;;;;;;;29.98;21.83;;;;;;;;;;5159025;27;20046;-95
2021/06/07 00:49:45;;;;;;;31.10;21.85;;;;;;;;;;5119502;28;20035;-95
2021/06/07 00:53:05;;;;;;;28.83;22.30;;;;;;;;;;5130704;27;20067;-94
2021/06/07 00:56:08;;;;;;;31.67;22.55;;;;;;;;;;5160973;27;20045;-96
2021/06/07 00:59:43;;;;;;;31.48;22.13;;;;;;;;;;5160994;27;20070;-96
2021/06/07 01:02:33;;;;;;;29.12;23.40;;;;;;;;;;5158970;27;20079;-95
2021/06/07 01:06:32;;;;;;;;;;;;;;;;;;;;;
2021/06/07 01:09:34;;;;;;;28.55;22.73;;;;;;;;;;5202190;27;20469;-96
2021/06/07 01:12:52;;;;;;;31.50;22.23;;;;;;;;;;5116410;27;20116;-96
2021/06/07 01:16:32;;;;;;;26.08;22.15;;;;;;;;;;5119766;27;20658;-96
2021/06/07 01:20:14;;;;;;;29.15;22.67;;;;;;;;;;5132733;27;20067;-96
2021/06/07 01:23:09;;;;;;;30.23;22.98;;;;;;;;;;5105544;27;20023;-94
2021/06/07 01:26:20;;;;;;;35.17;22.30;;;;;;;;;;5135569;27;20171;-96
2021/06/07 01:29:36;;;;;;;33.67;21.73;;;;;;;;;;5140257;27;20022;-96
2021/06/07 01:32:41;;;;;;;36.53;22.30;;;;;;;;;;5119330;27;20449;-96
2021/06/07 01:39:44;;;;;;;34.50;22.50;;;;;;;;;;5129569;27;20031;-95
2021/06/07 01:43:01;;;;;;;32.70;21.85;;;;;;;;;;5138023;27;20035;-95
2021/06/07 01:45:38;;;;;;;32.05;22.23;;;;;;;;;;5115708;27;20039;-96
2021/06/07 01:48:20;;;;;;;32.33;21.17;;;;;;;;;;5116459;27;20027;-95
2021/06/07 01:50:56;;;;;;;33.75;21.55;;;;;;;;;;5217200;27;20033;-95
2021/06/07 01:53:47;;;;;;;33.10;20.65;;;;;;;;;;5219457;27;20064;-95
2021/06/07 01:56:46;;;;;;;26.70;20.75;;;;;;;;;;5235733;27;20025;-95
2021/06/07 01:59:34;;;;;;;37.17;21.45;;;;;;;;;;5218917;27;20031;-94
2021/06/07 02:02:10;;;;;;;39.08;22.27;;;;;;;;;;5218317;27;20064;-96
2021/06/07 02:05:29;;;;;;;37.58;21.40;;;;;;;;;;5220055;27;20363;-96
2021/06/07 02:08:12;;;;;;;32.65;21.55;;;;;;;;;;5218913;27;20034;-96
2021/06/07 02:11:21;;;;;;;33.65;21.08;;;;;;;;;;5220899;27;20058;-95
2021/06/07 02:14:04;;;;;;;32.42;21.17;;;;;;;;;;5217143;27;20022;-96
2021/06/07 02:16:45;;;;;;;36.75;20.75;;;;;;;;;;5217274;27;20083;-95
2021/06/07 02:19:52;;;;;;;29.55;20.20;;;;;;;;;;5216468;27;20030;-95
2021/06/07 02:29:15;;;;;;;35.85;20.52;;;;;;;;;;5228549;27;20043;-95
2021/06/07 02:32:00;;;;;;;31.60;20.20;;;;;;;;;;5218965;27;20043;-93
2021/06/07 02:35:15;;;;;;;29.08;20.15;;;;;;;;;;5221561;27;20041;-94
2021/06/07 02:37:56;;;;;;;30.12;20.60;;;;;;;;;;5235764;27;20032;-94
2021/06/07 02:40:43;;;;;;;32.10;20.73;;;;;;;;;;5219689;27;20041;-95
2021/06/07 02:44:11;;;;;;;;;;;;;;;;;;;;;
2021/06/07 02:47:12;;;;;;;34.88;20.55;;;;;;;;;;5215198;27;20626;-95
2021/06/07 02:49:59;;;;;;;37.63;22.10;;;;;;;;;;5219978;27;20305;-95
2021/06/07 02:52:52;;;;;;;37.13;20.98;;;;;;;;;;5219291;27;20075;-95
2021/06/07 02:55:47;;;;;;;35.13;20.35;;;;;;;;;;5221944;27;20058;-95
2021/06/07 02:58:27;;;;;;;37.78;20.92;;;;;;;;;;5219572;27;20018;-95
2021/06/07 03:01:35;;;;;;;30.48;20.20;;;;;;;;;;5221591;27;20034;-95
2021/06/07 03:15:43;;;;;;;40.58;20.12;;;;;;;;;;5164309;27;20038;-94
2021/06/07 03:19:31;;;;;;;40.00;20.48;;;;;;;;;;5158473;27;20070;-94
2021/06/07 03:27:11;;;;;;;34.60;20.10;;;;;;;;;;5128977;27;20075;-96
2021/06/07 03:34:17;;;;;;;31.40;19.50;;;;;;;;;;5053579;27;20141;-96
2021/06/07 03:38:26;;;;;;;28.60;19.55;;;;;;;;;;5093337;28;20028;-95
2021/06/07 03:41:57;;;;;;;30.67;19.83;;;;;;;;;;5091210;28;20032;-96
2021/06/07 03:45:22;;;;;;;35.00;20.73;;;;;;;;;;5135144;27;20066;-95
2021/06/07 03:49:02;;;;;;;35.47;20.17;;;;;;;;;;5121845;27;20042;-95
2021/06/07 03:52:14;;;;;;;41.53;19.90;;;;;;;;;;5171182;27;20027;-95
2021/06/07 03:55:42;;;;;;;37.33;20.88;;;;;;;;;;5153226;27;20046;-96
2021/06/07 03:58:41;;;;;;;32.22;19.37;;;;;;;;;;5168682;27;20031;-95
2021/06/07 04:01:54;;;;;;;43.10;20.25;;;;;;;;;;5152442;27;20071;-94
2021/06/07 04:05:27;;;;;;;32.13;19.33;;;;;;;;;;5167142;27;20039;-95
2021/06/07 04:08:12;;;;;;;40.00;19.17;;;;;;;;;;5167091;27;20047;-95
2021/06/07 04:11:26;;;;;;;42.75;27.15;;;;;;;;;;5167495;27;20062;-94
2021/06/07 04:14:01;;;;;;;42.17;27.48;;;;;;;;;;5169108;27;20038;-95
2021/06/07 04:16:43;;;;;;;36.40;23.25;;;;;;;;;;5158292;27;20123;-96
2021/06/07 04:19:43;;;;;;;46.03;26.67;;;;;;;;;;5233825;27;20034;-95
2021/06/07 04:22:36;;;;;;;45.30;26.60;;;;;;;;;;5220932;27;20029;-94
2021/06/07 04:25:52;;;;;;;35.88;23.80;;;;;;;;;;5197294;27;20049;-96
2021/06/07 04:28:58;;;;;;;39.33;24.40;;;;;;;;;;5203958;27;20022;-96
2021/06/07 04:32:46;;;;;;;30.58;23.95;;;;;;;;;;5215873;27;20038;-95
2021/06/07 04:38:41;;;;;;;25.70;18.87;;;;;;;;;;5234747;27;20022;-95
2021/06/07 04:41:38;;;;;;;30.92;19.35;;;;;;;;;;5223802;27;20069;-96
2021/06/07 04:44:51;;;;;;;33.05;19.33;;;;;;;;;;5219702;27;20030;-95
2021/06/07 04:47:37;;;;;;;33.85;19.33;;;;;;;;;;5219848;27;20037;-96
2021/06/07 04:50:37;;;;;;;41.83;27.10;;;;;;;;;;5222694;27;20019;-96
2021/06/07 04:53:51;;;;;;;43.13;27.95;;;;;;;;;;5223636;27;20097;-95
2021/06/07 05:00:12;;;;;;;43.05;26.30;;;;;;;;;;5204458;27;20041;-96
2021/06/07 05:03:21;;;;;;;;;;;;;;;;;;;;;
2021/06/07 05:06:06;;;;;;;46.72;26.15;;;;;;;;;;5236768;27;20030;-95
2021/06/07 05:08:41;;;;;;;38.58;26.92;;;;;;;;;;5221050;27;20629;-95
2021/06/07 05:11:56;;;;;;;38.00;23.90;;;;;;;;;;5225300;27;20682;-95
2021/06/07 05:15:02;;;;;;;46.13;22.30;;;;;;;;;;5221592;27;20070;-94
2021/06/07 05:17:57;;;;;;;35.88;23.42;;;;;;;;;;5219833;27;20069;-95
2021/06/07 05:20:54;;;;;;;37.17;19.70;;;;;;;;;;5220695;27;20124;-96
2021/06/07 05:23:54;;;;;;;35.35;19.08;;;;;;;;;;5223144;27;20398;-95
2021/06/07 05:26:44;;;;;;;43.45;19.98;;;;;;;;;;5218434;27;20079;-96
2021/06/07 05:29:45;;;;;;;38.53;19.48;;;;;;;;;;5222652;27;20072;-94
2021/06/07 05:32:36;;;;;;;44.92;24.55;;;;;;;;;;5222893;27;20019;-96
2021/06/07 05:39:31;;;;;;;36.50;23.58;;;;;;;;;;5237158;27;20034;-96
2021/06/07 05:45:46;;;;;;;45.65;26.60;;;;;;;;;;5231446;27;20589;-95
2021/06/07 05:48:46;;;;;;;45.20;27.27;;;;;;;;;;5221314;27;20037;-94
2021/06/07 05:51:40;;;;;;;44.42;22.37;;;;;;;;;;5222738;27;20045;-94
2021/06/07 06:01:45;;;;;;;;;;;;;;;;;;;;;
2021/06/07 06:05:13;;;;;;;34.05;18.60;;;;;;;;;;5176721;27;20449;-93
2021/06/07 06:08:46;;;;;;;;;;;;;;;;;;5161534;27;20043;-95
2021/06/07 06:12:15;;;;;;;35.58;18.75;;;;;;;;;;5114405;28;20308;-96
2021/06/07 06:19:17;;;;;;;39.30;18.17;;;;;;;;;;5130286;27;20057;-96
2021/06/07 06:22:00;;;;;;;46.35;19.12;;;;;;;;;;5150036;27;20480;-96
2021/06/07 06:24:31;;;;;;;39.42;18.15;;;;;;;;;;5156937;27;20586;-95
2021/06/07 06:27:12;;;;;;;39.05;17.60;;;;;;;;;;5169126;27;20056;-95
2021/06/07 06:30:03;;;;;;;41.65;18.15;;;;;;;;;;5215986;27;20013;-96
2021/06/07 06:32:40;;;;;;;38.28;18.65;;;;;;;;;;5219995;27;20058;-92
2021/06/07 06:35:20;;;;;;;32.75;17.48;;;;;;;;;;5219958;27;20297;-94
2021/06/07 06:37:59;;;;;;;58.85;18.62;;;;;;;;;;5220986;27;20027;-94
2021/06/07 06:40:34;;;;;;;36.80;17.35;;;;;;;;;;5221577;27;20029;-95
2021/06/07 06:43:14;;;;;;;33.97;17.85;;;;;;;;;;5238376;27;20071;-93
2021/06/07 06:45:42;;;;;;;38.17;18.17;;;;;;;;;;5220364;27;20052;-93
2021/06/07 06:48:22;;;;;;;36.65;16.67;;;;;;;;;;5221486;27;20081;-92
2021/06/07 06:50:53;;;;;;;32.60;17.40;;;;;;;;;;5200656;27;20030;-94
2021/06/07 06:53:28;;;;;;;43.03;18.33;;;;;;;;;;5218608;27;20085;-93
2021/06/07 06:55:57;;;;;;;38.15;17.77;;;;;;;;;;5218599;27;20023;-92
2021/06/07 06:58:34;;;;;;;38.08;17.67;;;;;;;;;;5220978;27;20040;-90
2021/06/07 07:01:03;;;;;;;33.92;18.00;;;;;;;;;;5219631;27;20026;-93
2021/06/07 07:03:35;;;;;;;39.28;17.52;;;;;;;;;;5219542;27;20053;-95
2021/06/07 07:06:12;;;;;;;39.13;17.50;;;;;;;;;;5220223;27;20018;-93
2021/06/07 07:08:41;;;;;;;39.65;18.20;;;;;;;;;;5220102;27;20533;-92
2021/06/07 07:11:16;;;;;;;39.88;18.23;;;;;;;;;;5221728;27;20031;-92
2021/06/07 07:14:01;;;;;;;35.97;17.00;;;;;;;;;;5221490;27;20040;-93
2021/06/07 07:16:34;;;;;;;33.75;17.62;;;;;;;;;;5238621;27;20022;-94
2021/06/07 07:19:09;;;;;;;32.70;18.00;;;;;;;;;;5220649;27;20031;-94
2021/06/07 07:22:01;;;;;;;35.20;19.05;;;;;;;;;;5222811;27;20030;-94
2021/06/07 07:24:33;;;;;;;36.65;19.10;;;;;;;;;;5218253;27;20131;-93
2021/06/07 07:27:11;;;;;;;39.00;18.67;;;;;;;;;;5237423;27;20022;-94
2021/06/07 07:29:47;;;;;;;40.08;20.05;;;;;;;;;;5220838;27;20030;-93
2021/06/07 07:32:19;;;;;;;31.48;19.62;;;;;;;;;;5220818;27;20025;-93
2021/06/07 07:34:55;;;;;;;31.40;20.10;;;;;;;;;;5219586;27;20064;-92
2021/06/07 07:37:37;;;;;;;33.97;22.02;;;;;;;;;;5221451;27;20030;-94
2021/06/07 07:40:19;;;;;;;32.25;21.15;;;;;;;;;;5220291;27;20018;-93
2021/06/07 07:42:56;;;;;;;35.38;24.20;;;;;;;;;;5237646;27;20346;-92
2021/06/07 07:45:40;;;;;;;37.28;23.27;;;;;;;;;;5220827;27;20038;-92
2021/06/07 07:48:14;;;;;;;;;;;;;;;;;;5220336;27;20331;-94
2021/06/07 07:50:52;;;;;;;37.15;22.30;;;;;;;;;;5220867;27;19947;-96
2021/06/07 07:53:27;;;;;;;39.33;23.62;;;;;;;;;;5235663;27;20046;-94
2021/06/07 07:56:00;;;;;;;43.87;24.35;;;;;;;;;;5220215;27;20027;-93
2021/06/07 07:58:32;;;;;;;43.28;22.50;;;;;;;;;;5220119;27;20023;-94
2021/06/07 08:01:09;;;;;;;37.30;24.12;;;;;;;;;;5221225;27;20024;-95
2021/06/07 08:03:42;;;;;;;40.00;22.85;;;;;;;;;;5219703;27;20510;-93
2021/06/07 08:06:15;;;;;;;35.63;21.30;;;;;;;;;;5219889;27;20022;-94
2021/06/07 08:08:47;;;;;;;;;;;;;;;;;;5220045;27;20017;-93
2021/06/07 08:11:20;;;;;;;36.63;20.15;;;;;;;;;;5219769;27;19938;-94
2021/06/07 08:13:51;;;;;;;38.35;19.92;;;;;;;;;;5218506;27;20032;-94
2021/06/07 08:16:28;;;;;;;42.50;21.83;;;;;;;;;;5236594;27;20047;-94
2021/06/07 08:19:03;;;;;;;38.08;19.15;;;;;;;;;;5218900;27;20034;-93
2021/06/07 08:21:32;;;;;;;39.97;21.50;;;;;;;;;;5217950;27;20034;-93
2021/06/07 08:24:06;;;;;;;;;;;;;;;;;;5220019;27;20051;-93
2021/06/07 08:26:42;;;;;;;41.17;20.33;;;;;;;;;;5218027;27;19944;-94
2021/06/07 08:29:28;;;;;;;43.35;23.60;;;;;;;;;;5219822;27;20430;-96
2021/06/07 08:32:06;;;;;;;43.42;26.15;;;;;;;;;;5219971;27;20056;-96
2021/06/07 08:34:41;;;;;;;49.20;33.15;;;;;;;;;;5220092;27;20060;-94
2021/06/07 08:37:10;;;;;;;63.83;33.90;;;;;;;;;;5219041;27;20098;-94
2021/06/07 08:39:44;;;;;;;61.00;52.38;;;;;;;;;;5217597;27;20060;-93
2021/06/07 08:42:42;;;;;;;62.40;47.72;;;;;;;;;;5217538;27;20018;-95
2021/06/07 08:45:26;;;;;;;90.80;81.40;;;;;;;;;;5237231;27;20073;-95
2021/06/07 08:47:57;;;;;;;40.20;27.00;;;;;;;;;;5219366;27;20056;-95
2021/06/07 08:50:34;;;;;;;41.45;24.17;;;;;;;;;;5218176;27;20089;-92
2021/06/07 08:53:04;;;;;;;34.95;22.87;;;;;;;;;;5234558;27;20030;-94
2021/06/07 08:55:39;;;;;;;30.52;20.37;;;;;;;;;;5220030;27;20088;-94
2021/06/07 08:58:08;;;;;;;40.55;21.98;;;;;;;;;;5217849;27;20423;-93
2021/06/07 09:00:45;;;;;;;41.50;29.52;;;;;;;;;;5235603;27;20073;-95
2021/06/07 09:03:19;;;;;;;48.30;30.98;;;;;;;;;;5218064;27;20034;-93
2021/06/07 09:06:04;;;;;;;44.55;31.00;;;;;;;;;;5235714;27;20034;-94
2021/06/07 09:08:40;;;;;;;46.28;30.70;;;;;;;;;;5219627;27;20022;-92
2021/06/07 09:11:21;;;;;;;47.03;32.00;;;;;;;;;;5218535;27;20161;-93
2021/06/07 09:14:01;;;;;;;51.72;33.67;;;;;;;;;;5217123;27;20470;-93
2021/06/07 09:16:44;;;;;;;52.13;35.28;;;;;;;;;;5217637;27;20081;-94
2021/06/07 09:19:32;;;;;;;42.83;29.48;;;;;;;;;;5236148;27;20073;-94
2021/06/07 09:25:49;;;;;;;62.13;32.65;;;;;;;;;;5235295;27;20510;-93
2021/06/07 09:28:38;;;;;;;47.80;26.48;;;;;;;;;;5182754;27;20027;-94
2021/06/07 09:31:15;;;;;;;37.35;23.85;;;;;;;;;;5199460;27;20030;-93
2021/06/07 09:34:01;;;;;;;44.28;24.95;;;;;;;;;;5181232;27;20027;-93
2021/06/07 09:37:07;;;;;;;41.65;25.17;;;;;;;;;;5200373;27;20355;-93
2021/06/07 09:39:51;;;;;;;40.90;23.77;;;;;;;;;;5181550;27;20424;-94
2021/06/07 09:42:25;;;;;;;49.22;34.50;;;;;;;;;;5198801;27;20070;-93
2021/06/07 09:48:15;;;;;;;51.90;30.02;;;;;;;;;;5197172;27;20459;-96
2021/06/07 09:50:56;;;;;;;46.70;32.25;;;;;;;;;;5199332;27;20010;-94
2021/06/07 09:56:54;;;;;;;41.50;29.10;;;;;;;;;;5215614;27;20340;-93
2021/06/07 09:59:45;;;;;;;51.72;28.52;;;;;;;;;;5197527;27;20031;-94
2021/06/07 10:02:23;;;;;;;45.95;29.23;;;;;;;;;;5197411;27;20030;-95
2021/06/07 10:32:45;;;;;;;49.47;31.73;;;;;;;;;;5236151;27;20057;-95
2021/06/07 10:35:34;;;;;;;45.10;31.92;;;;;;;;;;5219246;27;20309;-94
2021/06/07 10:38:13;;;;;;;42.80;31.08;;;;;;;;;;5216759;27;20092;-95
2021/06/07 10:41:14;;;;;;;41.17;28.58;;;;;;;;;;5217604;27;20053;-93
2021/06/07 10:43:59;;;;;;;40.88;29.27;;;;;;;;;;5216460;27;20030;-94
2021/06/07 10:47:05;;;;;;;42.80;28.65;;;;;;;;;;5220639;27;20071;-94
2021/06/07 10:49:42;;;;;;;42.85;30.10;;;;;;;;;;5217955;27;20628;-93
2021/06/07 10:52:41;;;;;;;31.52;21.30;;;;;;;;;;5218846;27;20047;-93
2021/06/07 10:55:23;;;;;;;35.38;25.20;;;;;;;;;;5217747;27;20249;-95
2021/06/07 10:58:24;;;;;;;39.67;23.75;;;;;;;;;;5237257;27;20030;-94
2021/06/07 11:01:02;;;;;;;30.98;19.05;;;;;;;;;;5214866;27;20064;-95
2021/06/07 11:03:39;;;;;;;21.95;8.13;;;;;;;;;;5218526;27;20026;-94
2021/06/07 11:06:16;;;;;;;31.83;8.65;;;;;;;;;;5216568;27;20068;-95
2021/06/07 11:09:10;;;;;;;21.10;5.25;;;;;;;;;;5220452;27;20062;-96
2021/06/07 11:12:34;;;;;;;23.67;4.90;;;;;;;;;;5225421;27;20400;-96
2021/06/07 11:15:21;;;;;;;28.27;5.30;;;;;;;;;;5218127;27;20034;-94
2021/06/07 11:18:28;;;;;;;20.85;4.20;;;;;;;;;;5196561;27;20034;-95
2021/06/07 11:21:37;;;;;;;30.25;5.30;;;;;;;;;;5172113;27;20033;-94
2021/06/07 11:24:31;;;;;;;19.00;4.37;;;;;;;;;;5200328;27;20033;-95
2021/06/07 11:27:34;;;;;;;21.42;4.87;;;;;;;;;;5202220;27;20060;-95
2021/06/07 11:30:09;;;;;;;29.20;5.35;;;;;;;;;;5200755;27;20026;-93
2021/06/07 11:33:09;;;;;;;22.27;5.10;;;;;;;;;;5220770;27;20020;-96
2021/06/07 11:35:50;;;;;;;24.58;5.07;;;;;;;;;;5200207;27;20049;-94
2021/06/07 11:38:44;;;;;;;22.73;4.43;;;;;;;;;;5202722;27;20478;-95
2021/06/07 11:41:44;;;;;;;24.95;5.45;;;;;;;;;;5219568;27;20096;-94
2021/06/07 11:47:34;;;;;;;25.88;5.00;;;;;;;;;;5236429;27;20070;-94
2021/06/07 11:50:12;;;;;;;24.50;5.07;;;;;;;;;;5218202;27;20022;-94
2021/06/07 11:52:52;;;;;;;27.33;4.65;;;;;;;;;;5218746;27;20343;-93
2021/06/07 11:55:30;;;;;;;24.15;4.30;;;;;;;;;;5218565;27;20034;-94
2021/06/07 11:58:05;;;;;;;30.80;4.80;;;;;;;;;;5218018;27;20053;-94
2021/06/07 12:00:37;;;;;;;32.40;5.28;;;;;;;;;;5235342;27;20331;-94
2021/06/07 12:03:15;;;;;;;34.47;5.75;;;;;;;;;;5218666;27;20030;-94
2021/06/07 12:05:49;;;;;;;29.23;4.30;;;;;;;;;;5218153;27;20065;-95
2021/06/07 12:08:19;;;;;;;23.87;4.85;;;;;;;;;;5218849;27;20066;-96
2021/06/07 12:11:01;;;;;;;28.70;5.22;;;;;;;;;;5218042;27;20030;-93
2021/06/07 12:13:34;;;;;;;31.27;5.62;;;;;;;;;;5218848;27;20651;-94
2021/06/07 12:16:12;;;;;;;23.45;4.53;;;;;;;;;;5216704;27;20484;-94
2021/06/07 12:18:43;;;;;;;45.78;5.93;;;;;;;;;;5217001;27;20295;-94
2021/06/07 12:21:56;;;;;;;29.20;4.72;;;;;;;;;;5220212;27;20022;-95
2021/06/07 12:24:53;;;;;;;26.42;4.95;;;;;;;;;;5219553;27;20049;-94
2021/06/07 12:30:31;;;;;;;28.83;5.68;;;;;;;;;;5214588;27;20038;-94
2021/06/07 12:33:27;;;;;;;26.95;4.53;;;;;;;;;;5219045;27;20024;-94
2021/06/07 12:36:14;;;;;;;26.10;4.85;;;;;;;;;;5219325;27;20050;-94
2021/06/07 12:38:51;;;;;;;29.02;6.03;;;;;;;;;;5217398;27;20099;-95
2021/06/07 12:41:32;;;;;;;31.00;7.45;;;;;;;;;;5218759;27;20442;-93
2021/06/07 12:44:06;;;;;;;25.75;6.03;;;;;;;;;;5235264;27;20045;-93
2021/06/07 12:46:51;;;;;;;27.20;6.22;;;;;;;;;;5219617;27;20050;-95
2021/06/07 12:49:28;;;;;;;31.40;5.75;;;;;;;;;;5219637;27;20089;-95
2021/06/07 12:52:06;;;;;;;22.90;4.05;;;;;;;;;;5217332;27;20078;-94
2021/06/07 12:54:37;;;;;;;30.58;5.90;;;;;;;;;;5215074;27;20592;-94
2021/06/07 12:57:08;;;;;;;22.83;6.10;;;;;;;;;;5216577;27;20080;-94
2021/06/07 12:59:39;;;;;;;36.78;15.60;;;;;;;;;;5217659;27;20061;-93
2021/06/07 13:02:14;;;;;;;45.47;21.67;;;;;;;;;;5217184;27;20052;-95
2021/06/07 13:04:45;;;;;;;37.33;24.77;;;;;;;;;;5217934;27;20705;-93
2021/06/07 13:07:19;;;;;;;54.70;30.62;;;;;;;;;;5216619;27;20340;-94
2021/06/07 13:09:51;;;;;;;47.15;28.58;;;;;;;;;;5215652;27;20423;-95
2021/06/07 13:12:24;;;;;;;43.03;29.83;;;;;;;;;;5217734;27;20033;-94
2021/06/07 13:14:58;;;;;;;51.10;29.02;;;;;;;;;;5218467;27;20061;-95
2021/06/07 13:17:32;;;;;;;48.50;30.95;;;;;;;;;;5219092;27;20057;-93
2021/06/07 13:20:16;;;;;;;50.80;30.73;;;;;;;;;;5218265;27;20057;-94
2021/06/07 13:22:53;;;;;;;55.00;30.75;;;;;;;;;;5217780;27;20030;-95
2021/06/07 13:25:30;;;;;;;67.40;32.05;;;;;;;;;;5216191;27;20033;-93
2021/06/07 13:28:22;;;;;;;50.58;35.25;;;;;;;;;;5217260;27;20030;-93
2021/06/07 13:31:06;;;;;;;52.05;33.35;;;;;;;;;;5217860;27;20064;-94
2021/06/07 13:33:40;;;;;;;47.67;32.97;;;;;;;;;;5218298;27;20084;-93
2021/06/07 13:36:11;;;;;;;51.20;32.20;;;;;;;;;;5219269;27;20403;-96
2021/06/07 13:38:43;;;;;;;51.03;24.73;;;;;;;;;;5217333;27;20097;-94
2021/06/07 13:41:18;;;;;;;37.58;23.85;;;;;;;;;;5217702;27;20089;-95
2021/06/07 13:43:55;;;;;;;48.58;24.52;;;;;;;;;;5217104;27;20050;-95
2021/06/07 13:46:34;;;;;;;42.97;25.15;;;;;;;;;;5217677;27;20029;-92
2021/06/07 13:49:39;;;;;;;52.78;25.35;;;;;;;;;;5216450;27;20022;-93
2021/06/07 13:52:15;;;;;;;45.33;28.58;;;;;;;;;;5217769;27;20023;-95
2021/06/07 13:54:55;;;;;;;41.70;26.02;;;;;;;;;;5218695;27;20030;-95
2021/06/07 13:57:38;;;;;;;34.05;23.87;;;;;;;;;;5217591;27;20037;-95
2021/06/07 14:00:53;;;;;;;35.83;22.20;;;;;;;;;;5220715;27;20133;-95
2021/06/07 14:04:15;;;;;;;;;;;;;;;;;;;;;
2021/06/07 14:06:54;;;;;;;30.88;18.77;;;;;;;;;;5190900;27;20037;-96
2021/06/07 14:09:45;;;;;;;28.83;11.32;;;;;;;;;;5150934;27;20027;-94
2021/06/07 14:13:01;;;;;;;21.48;4.60;;;;;;;;;;5159766;27;20042;-95
2021/06/07 14:16:00;;;;;;;26.23;4.65;;;;;;;;;;5170326;27;20027;-95
2021/06/07 14:19:16;;;;;;;27.35;5.40;;;;;;;;;;5154348;27;20466;-92
2021/06/07 14:25:18;;;;;;;48.60;6.97;;;;;;;;;;5160395;27;20029;-94
2021/06/07 14:28:28;;;;;;;24.33;5.07;;;;;;;;;;5170831;27;20416;-94
2021/06/07 14:31:51;;;;;;;33.63;5.78;;;;;;;;;;5172148;27;20069;-95
2021/06/07 14:34:50;;;;;;;22.00;4.43;;;;;;;;;;5198370;27;20077;-95
2021/06/07 14:37:51;;;;;;;25.55;4.95;;;;;;;;;;5218770;27;20129;-94
2021/06/07 14:40:20;;;;;;;20.12;4.15;;;;;;;;;;5217271;27;20023;-95
2021/06/07 14:43:02;;;;;;;27.98;5.07;;;;;;;;;;5218780;27;20336;-93
2021/06/07 14:45:30;;;;;;;24.65;4.72;;;;;;;;;;5217559;27;20527;-93
2021/06/07 14:48:14;;;;;;;25.98;5.10;;;;;;;;;;5218800;27;20022;-94
2021/06/07 14:50:52;;;;;;;24.83;4.57;;;;;;;;;;5219594;27;20077;-95
2021/06/07 14:53:30;;;;;;;24.73;5.20;;;;;;;;;;5219442;27;20022;-95
2021/06/07 14:56:14;;;;;;;19.45;4.50;;;;;;;;;;5219065;27;20227;-94
2021/06/07 14:58:48;;;;;;;28.42;4.72;;;;;;;;;;5217958;27;20415;-94
2021/06/07 15:04:47;;;;;;;29.48;5.00;;;;;;;;;;5218076;27;20057;-95
2021/06/07 15:07:31;;;;;;;29.55;5.03;;;;;;;;;;5220028;27;20327;-92
2021/06/07 15:10:13;;;;;;;28.15;4.95;;;;;;;;;;5220242;27;20065;-95
2021/06/07 15:12:45;;;;;;;27.80;5.25;;;;;;;;;;5218458;27;20030;-93
2021/06/07 15:15:24;;;;;;;24.35;4.47;;;;;;;;;;5219178;27;20034;-94
2021/06/07 15:18:22;;;;;;;23.77;4.95;;;;;;;;;;5216779;27;20033;-94
2021/06/07 15:21:23;;;;;;;24.70;4.90;;;;;;;;;;5234817;27;20044;-94
2021/06/07 15:24:44;;;;;;;32.47;5.72;;;;;;;;;;5224017;27;20056;-93
2021/06/07 15:27:20;;;;;;;26.70;4.90;;;;;;;;;;5216318;27;20022;-93
2021/06/07 15:29:57;;;;;;;24.35;4.80;;;;;;;;;;5218597;27;20026;-93
2021/06/07 15:32:32;;;;;;;31.00;5.95;;;;;;;;;;5217393;27;20084;-94
2021/06/07 15:35:31;;;;;;;22.25;4.40;;;;;;;;;;5219205;27;20078;-93
2021/06/07 15:38:31;;;;;;;32.50;5.55;;;;;;;;;;5219462;27;20030;-91
2021/06/07 15:41:05;;;;;;;27.35;5.00;;;;;;;;;;5236469;27;20030;-93
2021/06/07 15:43:54;;;;;;;27.33;4.97;;;;;;;;;;5234742;27;20028;-95
2021/06/07 15:46:49;;;;;;;37.65;5.72;;;;;;;;;;5219662;27;20085;-94
2021/06/07 15:50:18;;;;;;;35.60;5.62;;;;;;;;;;5223896;27;20064;-94
2021/06/07 15:52:59;;;;;;;29.70;5.07;;;;;;;;;;5217803;27;20045;-96
2021/06/07 15:56:23;;;;;;;30.35;5.20;;;;;;;;;;5125386;27;20047;-94
2021/06/07 15:59:07;;;;;;;26.73;4.75;;;;;;;;;;5118015;27;20031;-94
2021/06/07 16:01:51;;;;;;;29.10;5.35;;;;;;;;;;5118858;27;20058;-95
2021/06/07 16:04:26;;;;;;;29.40;5.10;;;;;;;;;;5219556;27;20460;-94
2021/06/07 16:07:01;;;;;;;24.30;4.97;;;;;;;;;;5219966;27;20022;-93
2021/06/07 16:09:59;;;;;;;26.80;5.18;;;;;;;;;;5235467;27;20343;-94
2021/06/07 16:12:37;;;;;;;24.50;5.43;;;;;;;;;;5218978;27;20104;-95
2021/06/07 16:15:19;;;;;;;;;;;;;;;;;;5219466;27;20100;-94
2021/06/07 16:23:10;;;;;;;25.58;4.80;;;;;;;;;;5235304;27;20030;-95
2021/06/07 16:25:43;;;;;;;28.25;5.53;;;;;;;;;;5218512;27;20018;-94
2021/06/07 16:28:11;;;;;;;22.92;4.80;;;;;;;;;;5219474;27;20073;-94
2021/06/07 16:30:43;;;;;;;26.90;4.53;;;;;;;;;;5219344;27;20057;-94
2021/06/07 16:33:17;;;;;;;28.23;5.30;;;;;;;;;;5218239;27;20053;-93
2021/06/07 16:35:49;;;;;;;29.98;5.93;;;;;;;;;;5217838;27;20014;-94
2021/06/07 16:38:22;;;;;;;26.50;5.00;;;;;;;;;;5217791;27;20031;-94
2021/06/07 16:40:55;;;;;;;39.15;5.62;;;;;;;;;;5219923;27;20358;-95
2021/06/07 16:43:36;;;;;;;23.20;4.63;;;;;;;;;;5218969;27;20030;-95
2021/06/07 16:46:35;;;;;;;44.65;6.90;;;;;;;;;;5210601;27;20407;-93
2021/06/07 16:49:30;;;;;;;33.40;6.25;;;;;;;;;;5220383;27;20192;-95
2021/06/07 16:52:00;;;;;;;28.58;5.57;;;;;;;;;;5214929;27;20100;-93
2021/06/07 16:54:37;;;;;;;19.23;3.95;;;;;;;;;;5217492;27;20022;-94
2021/06/07 16:57:13;;;;;;;;;;;;;;;;;;5219197;27;20468;-94
2021/06/07 16:59:46;;;;;;;22.27;4.20;;;;;;;;;;5219120;27;20309;-96
2021/06/07 17:02:26;;;;;;;30.77;5.35;;;;;;;;;;5219062;27;20084;-94
2021/06/07 17:04:58;;;;;;;55.15;6.43;;;;;;;;;;5216436;27;20041;-94
2021/06/07 17:07:32;;;;;;;30.70;5.85;;;;;;;;;;5216835;27;20022;-94
2021/06/07 17:10:03;;;;;;;43.60;10.32;;;;;;;;;;5217252;27;20451;-96
2021/06/07 17:12:43;;;;;;;32.40;9.00;;;;;;;;;;5216521;27;20080;-94
2021/06/07 17:15:24;;;;;;;32.28;12.65;;;;;;;;;;5215923;27;20041;-94
2021/06/07 17:18:00;;;;;;;36.72;10.57;;;;;;;;;;5234293;27;20101;-95
2021/06/07 17:20:36;;;;;;;26.17;11.25;;;;;;;;;;5200982;27;20065;-92
2021/06/07 17:23:07;;;;;;;30.52;6.78;;;;;;;;;;5216763;27;20113;-94
2021/06/07 17:25:37;;;;;;;35.95;11.50;;;;;;;;;;5234255;27;20019;-93
2021/06/07 17:28:11;;;;;;;32.60;12.57;;;;;;;;;;5217112;27;20037;-93
2021/06/07 17:30:40;;;;;;;32.42;13.20;;;;;;;;;;5217287;27;20394;-95
2021/06/07 17:33:13;;;;;;;31.17;11.48;;;;;;;;;;5217352;27;20053;-95
2021/06/07 17:35:44;;;;;;;29.87;9.70;;;;;;;;;;5217517;27;20018;-96
2021/06/07 17:38:13;;;;;;;39.05;11.90;;;;;;;;;;5216841;27;20041;-93
2021/06/07 17:40:42;;;;;;;29.90;9.23;;;;;;;;;;5216335;27;20424;-95
2021/06/07 17:43:12;;;;;;;34.35;11.38;;;;;;;;;;5233616;27;20045;-93
2021/06/07 17:45:48;;;;;;;59.08;15.40;;;;;;;;;;5217140;27;20022;-94
2021/06/07 17:48:39;;;;;;;41.72;25.65;;;;;;;;;;5218400;27;20053;-92
2021/06/07 17:51:46;;;;;;;44.70;22.15;;;;;;;;;;5221224;27;20026;-92
2021/06/07 17:54:21;;;;;;;44.17;26.27;;;;;;;;;;5218456;27;20117;-94
2021/06/07 17:56:50;;;;;;;44.58;27.13;;;;;;;;;;5217747;27;20077;-93
2021/06/07 17:59:23;;;;;;;46.03;29.52;;;;;;;;;;5218173;27;20427;-92
2021/06/07 18:01:52;;;;;;;58.05;31.90;;;;;;;;;;5216654;27;20032;-94
2021/06/07 18:04:24;;;;;;;50.75;35.47;;;;;;;;;;5217987;27;20038;-96
2021/06/07 18:06:59;;;;;;;54.80;34.92;;;;;;;;;;5218314;27;20056;-94
2021/06/07 18:09:28;;;;;;;59.35;38.40;;;;;;;;;;5218468;27;20112;-94
2021/06/07 18:11:59;;;;;;;56.78;38.30;;;;;;;;;;5217333;27;20032;-93
2021/06/07 18:14:30;;;;;;;53.70;38.17;;;;;;;;;;5218046;27;20022;-92
2021/06/07 18:17:02;;;;;;;47.50;28.40;;;;;;;;;;5217051;27;20019;-91
2021/06/07 18:19:32;;;;;;;102.90;92.85;;;;;;;;;;5218101;27;20082;-93
2021/06/07 18:22:07;;;;;;;45.22;29.33;;;;;;;;;;5235217;27;20026;-93
2021/06/07 18:24:36;;;;;;;44.85;26.90;;;;;;;;;;5218332;27;20055;-93
2021/06/07 18:27:07;;;;;;;41.72;23.80;;;;;;;;;;5218635;27;20404;-93
2021/06/07 18:29:39;;;;;;;59.13;39.88;;;;;;;;;;5218923;27;20030;-93